sensor_id;sensor_type;location;lat;lon;timestamp;temperature;humidity
61672;DHT22;47572;0.00000000;0.00000000;2022-10-14T00:00:40;19.90;71.30
61672;DHT22;47572;0.00000000;0.00000000;2022-10-14T00:03:06;19.90;71.30
61672;DHT22;47572;0.00000000;0.00000000;2022-10-14T00:05:32;19.90;71.30
61672;DHT22;47572;0.00000000;0.00000000;2022-10-14T00:07:58;19.90;71.30
61672;DHT22;47572;0.00000000;0.00000000;2022-10-14T00:10:23;19.90;71.30
61672;DHT22;47572;0.00000000;0.00000000;2022-10-14T00:12:49;19.90;71.40
61672;DHT22;47572;0.00000000;0.00000000;2022-10-14T00:15:15;19.90;71.30
61672;DHT22;47572;0.00000000;0.00000000;2022-10-14T00:17:41;19.90;71.30
61672;DHT22;47572;0.00000000;0.00000000;2022-10-14T00:20:07;19.90;71.30
61672;DHT22;47572;0.00000000;0.00000000;2022-10-14T00:22:33;19.80;71.20
61672;DHT22;47572;0.00000000;0.00000000;2022-10-14T00:24:59;19.80;71.30
61672;DHT22;47572;0.00000000;0.00000000;2022-10-14T00:27:24;19.80;71.20
61672;DHT22;47572;0.00000000;0.00000000;2022-10-14T00:29:51;19.90;71.30
61672;DHT22;47572;0.00000000;0.00000000;2022-10-14T00:32:16;19.80;71.20
61672;DHT22;47572;0.00000000;0.00000000;2022-10-14T00:34:42;19.80;71.20
61672;DHT22;47572;0.00000000;0.00000000;2022-10-14T00:37:08;19.80;71.30
61672;DHT22;47572;0.00000000;0.00000000;2022-10-14T00:39:34;19.80;71.20
61672;DHT22;47572;0.00000000;0.00000000;2022-10-14T00:42:00;19.80;71.20
61672;DHT22;47572;0.00000000;0.00000000;2022-10-14T00:46:51;19.80;71.20
61672;DHT22;47572;0.00000000;0.00000000;2022-10-14T00:51:44;19.80;71.20
61672;DHT22;47572;0.00000000;0.00000000;2022-10-14T00:54:10;19.80;71.20
61672;DHT22;47572;0.00000000;0.00000000;2022-10-14T00:56:38;19.80;71.20
61672;DHT22;47572;0.00000000;0.00000000;2022-10-14T00:59:03;19.80;72.00
61672;DHT22;47572;0.00000000;0.00000000;2022-10-14T01:01:30;19.80;71.20
61672;DHT22;47572;0.00000000;0.00000000;2022-10-14T01:03:56;19.70;71.10
61672;DHT22;47572;0.00000000;0.00000000;2022-10-14T01:08:51;19.80;71.20
61672;DHT22;47572;0.00000000;0.00000000;2022-10-14T01:14:12;19.70;71.10
61672;DHT22;47572;0.00000000;0.00000000;2022-10-14T01:16:55;19.70;71.10
61672;DHT22;47572;0.00000000;0.00000000;2022-10-14T01:19:36;19.70;71.10
61672;DHT22;47572;0.00000000;0.00000000;2022-10-14T01:22:13;19.70;71.10
61672;DHT22;47572;0.00000000;0.00000000;2022-10-14T01:24:52;19.70;71.10
61672;DHT22;47572;0.00000000;0.00000000;2022-10-14T01:32:12;19.70;71.10
61672;DHT22;47572;0.00000000;0.00000000;2022-10-14T01:34:41;19.70;71.10
61672;DHT22;47572;0.00000000;0.00000000;2022-10-14T01:37:10;19.70;71.00
61672;DHT22;47572;0.00000000;0.00000000;2022-10-14T01:39:40;19.70;71.00
61672;DHT22;47572;0.00000000;0.00000000;2022-10-14T01:42:08;19.70;71.00
61672;DHT22;47572;0.00000000;0.00000000;2022-10-14T01:44:36;19.70;71.00
61672;DHT22;47572;0.00000000;0.00000000;2022-10-14T01:47:03;19.70;71.00
61672;DHT22;47572;0.00000000;0.00000000;2022-10-14T01:54:41;19.60;70.90
61672;DHT22;47572;0.00000000;0.00000000;2022-10-14T01:57:08;19.60;70.90
61672;DHT22;47572;0.00000000;0.00000000;2022-10-14T01:59:36;19.60;70.90
61672;DHT22;47572;0.00000000;0.00000000;2022-10-14T02:02:03;19.60;70.80
61672;DHT22;47572;0.00000000;0.00000000;2022-10-14T02:04:28;19.60;70.80
61672;DHT22;47572;0.00000000;0.00000000;2022-10-14T02:09:44;19.60;70.90
61672;DHT22;47572;0.00000000;0.00000000;2022-10-14T02:14:53;19.60;70.90
61672;DHT22;47572;0.00000000;0.00000000;2022-10-14T02:19:51;19.60;70.90
61672;DHT22;47572;0.00000000;0.00000000;2022-10-14T02:22:27;19.60;70.80
61672;DHT22;47572;0.00000000;0.00000000;2022-10-14T02:24:56;19.60;70.90
61672;DHT22;47572;0.00000000;0.00000000;2022-10-14T02:27:24;19.60;70.90
61672;DHT22;47572;0.00000000;0.00000000;2022-10-14T02:29:51;19.60;70.90
61672;DHT22;47572;0.00000000;0.00000000;2022-10-14T02:32:18;19.50;70.80
61672;DHT22;47572;0.00000000;0.00000000;2022-10-14T02:34:46;19.50;70.80
61672;DHT22;47572;0.00000000;0.00000000;2022-10-14T02:37:12;19.60;70.80
61672;DHT22;47572;0.00000000;0.00000000;2022-10-14T02:39:41;19.60;70.80
61672;DHT22;47572;0.00000000;0.00000000;2022-10-14T02:42:08;19.60;70.90
61672;DHT22;47572;0.00000000;0.00000000;2022-10-14T02:44:34;19.50;70.80
61672;DHT22;47572;0.00000000;0.00000000;2022-10-14T02:47:00;19.50;70.80
61672;DHT22;47572;0.00000000;0.00000000;2022-10-14T02:49:25;19.50;70.80
61672;DHT22;47572;0.00000000;0.00000000;2022-10-14T02:51:51;19.50;70.80
61672;DHT22;47572;0.00000000;0.00000000;2022-10-14T02:54:17;19.50;70.80
61672;DHT22;47572;0.00000000;0.00000000;2022-10-14T02:56:42;19.50;70.70
61672;DHT22;47572;0.00000000;0.00000000;2022-10-14T02:59:08;19.50;70.70
61672;DHT22;47572;0.00000000;0.00000000;2022-10-14T03:01:34;19.50;70.70
61672;DHT22;47572;0.00000000;0.00000000;2022-10-14T03:04:00;19.50;70.70
61672;DHT22;47572;0.00000000;0.00000000;2022-10-14T03:06:25;19.50;70.70
61672;DHT22;47572;0.00000000;0.00000000;2022-10-14T03:08:52;19.50;70.60
61672;DHT22;47572;0.00000000;0.00000000;2022-10-14T03:11:18;19.50;70.70
61672;DHT22;47572;0.00000000;0.00000000;2022-10-14T03:13:44;19.50;70.60
61672;DHT22;47572;0.00000000;0.00000000;2022-10-14T03:16:09;19.50;70.60
61672;DHT22;47572;0.00000000;0.00000000;2022-10-14T03:18:35;19.40;70.50
61672;DHT22;47572;0.00000000;0.00000000;2022-10-14T03:21:01;19.40;70.50
61672;DHT22;47572;0.00000000;0.00000000;2022-10-14T03:23:27;19.40;70.50
61672;DHT22;47572;0.00000000;0.00000000;2022-10-14T03:25:53;19.40;70.50
61672;DHT22;47572;0.00000000;0.00000000;2022-10-14T03:28:18;19.40;70.50
61672;DHT22;47572;0.00000000;0.00000000;2022-10-14T03:30:44;19.40;70.50
61672;DHT22;47572;0.00000000;0.00000000;2022-10-14T03:33:10;19.40;70.50
61672;DHT22;47572;0.00000000;0.00000000;2022-10-14T03:35:36;19.40;70.40
61672;DHT22;47572;0.00000000;0.00000000;2022-10-14T03:38:02;19.40;70.50
61672;DHT22;47572;0.00000000;0.00000000;2022-10-14T03:40:29;19.40;70.50
61672;DHT22;47572;0.00000000;0.00000000;2022-10-14T03:42:58;19.40;70.50
61672;DHT22;47572;0.00000000;0.00000000;2022-10-14T03:45:25;19.40;70.50
61672;DHT22;47572;0.00000000;0.00000000;2022-10-14T03:47:51;19.40;70.50
61672;DHT22;47572;0.00000000;0.00000000;2022-10-14T03:50:17;19.30;70.50
61672;DHT22;47572;0.00000000;0.00000000;2022-10-14T03:52:42;19.30;70.50
61672;DHT22;47572;0.00000000;0.00000000;2022-10-14T03:55:08;19.30;70.40
61672;DHT22;47572;0.00000000;0.00000000;2022-10-14T03:57:34;19.40;70.50
61672;DHT22;47572;0.00000000;0.00000000;2022-10-14T03:59:59;19.30;70.50
61672;DHT22;47572;0.00000000;0.00000000;2022-10-14T04:02:25;19.30;70.40
61672;DHT22;47572;0.00000000;0.00000000;2022-10-14T04:04:51;19.30;70.40
61672;DHT22;47572;0.00000000;0.00000000;2022-10-14T04:07:16;19.30;70.40
61672;DHT22;47572;0.00000000;0.00000000;2022-10-14T04:09:42;19.30;70.40
61672;DHT22;47572;0.00000000;0.00000000;2022-10-14T04:12:08;19.30;70.40
61672;DHT22;47572;0.00000000;0.00000000;2022-10-14T04:14:33;19.30;70.40
61672;DHT22;47572;0.00000000;0.00000000;2022-10-14T04:16:59;19.30;70.40
61672;DHT22;47572;0.00000000;0.00000000;2022-10-14T04:19:25;19.30;70.40
61672;DHT22;47572;0.00000000;0.00000000;2022-10-14T04:21:50;19.30;70.40
61672;DHT22;47572;0.00000000;0.00000000;2022-10-14T04:24:16;19.30;70.40
61672;DHT22;47572;0.00000000;0.00000000;2022-10-14T04:26:42;19.30;70.40
61672;DHT22;47572;0.00000000;0.00000000;2022-10-14T04:29:07;19.30;70.40
61672;DHT22;47572;0.00000000;0.00000000;2022-10-14T04:31:33;19.30;70.40
61672;DHT22;47572;0.00000000;0.00000000;2022-10-14T04:34:00;19.20;70.30
61672;DHT22;47572;0.00000000;0.00000000;2022-10-14T04:36:26;19.30;70.30
61672;DHT22;47572;0.00000000;0.00000000;2022-10-14T04:38:51;19.30;70.30
61672;DHT22;47572;0.00000000;0.00000000;2022-10-14T04:41:17;19.30;70.30
61672;DHT22;47572;0.00000000;0.00000000;2022-10-14T04:43:43;19.30;70.30
61672;DHT22;47572;0.00000000;0.00000000;2022-10-14T04:46:08;19.30;70.20
61672;DHT22;47572;0.00000000;0.00000000;2022-10-14T04:48:34;19.30;70.30
61672;DHT22;47572;0.00000000;0.00000000;2022-10-14T04:51:00;19.20;70.20
61672;DHT22;47572;0.00000000;0.00000000;2022-10-14T04:53:25;19.20;70.20
61672;DHT22;47572;0.00000000;0.00000000;2022-10-14T04:55:51;19.20;70.20
61672;DHT22;47572;0.00000000;0.00000000;2022-10-14T04:58:17;19.20;70.20
61672;DHT22;47572;0.00000000;0.00000000;2022-10-14T05:00:42;19.20;70.20
61672;DHT22;47572;0.00000000;0.00000000;2022-10-14T05:03:08;19.20;70.20
61672;DHT22;47572;0.00000000;0.00000000;2022-10-14T05:05:34;19.20;70.20
61672;DHT22;47572;0.00000000;0.00000000;2022-10-14T05:08:00;19.20;70.20
61672;DHT22;47572;0.00000000;0.00000000;2022-10-14T05:10:25;19.20;70.10
61672;DHT22;47572;0.00000000;0.00000000;2022-10-14T05:12:51;19.20;70.10
61672;DHT22;47572;0.00000000;0.00000000;2022-10-14T05:15:17;19.20;70.20
61672;DHT22;47572;0.00000000;0.00000000;2022-10-14T05:17:42;19.20;70.20
61672;DHT22;47572;0.00000000;0.00000000;2022-10-14T05:20:09;19.20;70.20
61672;DHT22;47572;0.00000000;0.00000000;2022-10-14T05:22:35;19.10;70.00
61672;DHT22;47572;0.00000000;0.00000000;2022-10-14T05:25:01;19.20;70.10
61672;DHT22;47572;0.00000000;0.00000000;2022-10-14T05:27:27;19.20;70.10
61672;DHT22;47572;0.00000000;0.00000000;2022-10-14T05:29:53;19.20;70.10
61672;DHT22;47572;0.00000000;0.00000000;2022-10-14T05:32:19;19.10;70.10
61672;DHT22;47572;0.00000000;0.00000000;2022-10-14T05:34:46;19.10;70.00
61672;DHT22;47572;0.00000000;0.00000000;2022-10-14T05:37:11;19.10;70.00
61672;DHT22;47572;0.00000000;0.00000000;2022-10-14T05:39:37;19.10;70.00
61672;DHT22;47572;0.00000000;0.00000000;2022-10-14T05:42:03;19.10;70.00
61672;DHT22;47572;0.00000000;0.00000000;2022-10-14T05:44:28;19.10;70.00
61672;DHT22;47572;0.00000000;0.00000000;2022-10-14T05:46:54;19.10;70.00
61672;DHT22;47572;0.00000000;0.00000000;2022-10-14T05:49:20;19.10;70.00
61672;DHT22;47572;0.00000000;0.00000000;2022-10-14T05:51:45;19.10;70.00
61672;DHT22;47572;0.00000000;0.00000000;2022-10-14T05:54:11;19.10;70.00
61672;DHT22;47572;0.00000000;0.00000000;2022-10-14T05:56:37;19.10;70.00
61672;DHT22;47572;0.00000000;0.00000000;2022-10-14T05:59:02;19.10;70.00
61672;DHT22;47572;0.00000000;0.00000000;2022-10-14T06:01:28;19.10;70.00
61672;DHT22;47572;0.00000000;0.00000000;2022-10-14T06:03:54;19.10;70.00
61672;DHT22;47572;0.00000000;0.00000000;2022-10-14T06:06:20;19.10;70.00
61672;DHT22;47572;0.00000000;0.00000000;2022-10-14T06:08:46;19.10;70.00
61672;DHT22;47572;0.00000000;0.00000000;2022-10-14T06:11:11;19.00;70.00
61672;DHT22;47572;0.00000000;0.00000000;2022-10-14T06:13:38;19.10;70.00
61672;DHT22;47572;0.00000000;0.00000000;2022-10-14T06:16:04;19.00;69.90
61672;DHT22;47572;0.00000000;0.00000000;2022-10-14T06:18:30;19.00;69.90
61672;DHT22;47572;0.00000000;0.00000000;2022-10-14T06:20:56;19.00;69.90
61672;DHT22;47572;0.00000000;0.00000000;2022-10-14T06:23:22;19.00;69.90
61672;DHT22;47572;0.00000000;0.00000000;2022-10-14T06:25:47;19.00;69.90
61672;DHT22;47572;0.00000000;0.00000000;2022-10-14T06:28:13;19.00;69.90
61672;DHT22;47572;0.00000000;0.00000000;2022-10-14T06:30:39;19.00;69.90
61672;DHT22;47572;0.00000000;0.00000000;2022-10-14T06:33:04;19.00;69.90
61672;DHT22;47572;0.00000000;0.00000000;2022-10-14T06:35:31;19.00;69.90
61672;DHT22;47572;0.00000000;0.00000000;2022-10-14T06:37:56;19.00;69.60
61672;DHT22;47572;0.00000000;0.00000000;2022-10-14T06:40:22;19.00;69.10
61672;DHT22;47572;0.00000000;0.00000000;2022-10-14T06:42:48;18.90;68.50
61672;DHT22;47572;0.00000000;0.00000000;2022-10-14T06:45:13;19.00;68.30
61672;DHT22;47572;0.00000000;0.00000000;2022-10-14T06:47:39;19.00;68.50
61672;DHT22;47572;0.00000000;0.00000000;2022-10-14T06:50:05;19.00;68.90
61672;DHT22;47572;0.00000000;0.00000000;2022-10-14T06:52:31;18.90;69.30
61672;DHT22;47572;0.00000000;0.00000000;2022-10-14T06:54:56;18.90;69.40
61672;DHT22;47572;0.00000000;0.00000000;2022-10-14T06:57:22;18.90;69.40
61672;DHT22;47572;0.00000000;0.00000000;2022-10-14T06:59:48;18.90;69.60
61672;DHT22;47572;0.00000000;0.00000000;2022-10-14T07:02:13;18.90;69.90
61672;DHT22;47572;0.00000000;0.00000000;2022-10-14T07:04:39;19.00;70.10
61672;DHT22;47572;0.00000000;0.00000000;2022-10-14T07:07:05;19.00;69.80
61672;DHT22;47572;0.00000000;0.00000000;2022-10-14T07:09:31;19.20;69.70
61672;DHT22;47572;0.00000000;0.00000000;2022-10-14T07:11:57;19.30;69.50
61672;DHT22;47572;0.00000000;0.00000000;2022-10-14T07:14:22;19.30;69.20
61672;DHT22;47572;0.00000000;0.00000000;2022-10-14T07:16:48;19.50;69.90
61672;DHT22;47572;0.00000000;0.00000000;2022-10-14T07:19:14;19.60;68.70
61672;DHT22;47572;0.00000000;0.00000000;2022-10-14T07:21:39;19.70;68.30
61672;DHT22;47572;0.00000000;0.00000000;2022-10-14T07:24:07;19.90;68.10
61672;DHT22;47572;0.00000000;0.00000000;2022-10-14T07:26:33;20.00;67.80
61672;DHT22;47572;0.00000000;0.00000000;2022-10-14T07:28:59;20.10;67.60
61672;DHT22;47572;0.00000000;0.00000000;2022-10-14T07:31:25;20.20;67.30
61672;DHT22;47572;0.00000000;0.00000000;2022-10-14T07:33:51;20.20;67.10
61672;DHT22;47572;0.00000000;0.00000000;2022-10-14T07:36:17;20.30;66.90
61672;DHT22;47572;0.00000000;0.00000000;2022-10-14T07:38:44;20.40;66.70
61672;DHT22;47572;0.00000000;0.00000000;2022-10-14T07:41:15;20.50;66.60
61672;DHT22;47572;0.00000000;0.00000000;2022-10-14T07:43:41;20.50;66.40
61672;DHT22;47572;0.00000000;0.00000000;2022-10-14T07:46:07;20.70;66.20
61672;DHT22;47572;0.00000000;0.00000000;2022-10-14T07:48:33;20.70;66.10
61672;DHT22;47572;0.00000000;0.00000000;2022-10-14T07:50:59;20.70;66.00
61672;DHT22;47572;0.00000000;0.00000000;2022-10-14T07:53:25;20.80;66.00
61672;DHT22;47572;0.00000000;0.00000000;2022-10-14T07:55:51;20.80;65.80
61672;DHT22;47572;0.00000000;0.00000000;2022-10-14T07:58:20;20.90;65.90
61672;DHT22;47572;0.00000000;0.00000000;2022-10-14T08:00:47;20.90;65.80
61672;DHT22;47572;0.00000000;0.00000000;2022-10-14T08:03:13;20.90;65.90
61672;DHT22;47572;0.00000000;0.00000000;2022-10-14T08:05:39;21.00;65.80
61672;DHT22;47572;0.00000000;0.00000000;2022-10-14T08:08:05;21.00;65.80
61672;DHT22;47572;0.00000000;0.00000000;2022-10-14T08:10:31;21.10;65.80
61672;DHT22;47572;0.00000000;0.00000000;2022-10-14T08:12:56;21.10;65.80
61672;DHT22;47572;0.00000000;0.00000000;2022-10-14T08:15:22;21.10;65.80
61672;DHT22;47572;0.00000000;0.00000000;2022-10-14T08:17:53;21.10;65.80
61672;DHT22;47572;0.00000000;0.00000000;2022-10-14T08:20:19;21.20;65.80
61672;DHT22;47572;0.00000000;0.00000000;2022-10-14T08:22:45;21.20;66.60
61672;DHT22;47572;0.00000000;0.00000000;2022-10-14T08:25:11;21.20;65.70
61672;DHT22;47572;0.00000000;0.00000000;2022-10-14T08:27:36;21.20;65.70
61672;DHT22;47572;0.00000000;0.00000000;2022-10-14T08:30:02;21.20;65.60
61672;DHT22;47572;0.00000000;0.00000000;2022-10-14T08:32:28;21.20;65.60
61672;DHT22;47572;0.00000000;0.00000000;2022-10-14T08:34:54;21.30;65.60
61672;DHT22;47572;0.00000000;0.00000000;2022-10-14T08:37:21;21.30;65.50
61672;DHT22;47572;0.00000000;0.00000000;2022-10-14T08:39:47;21.40;65.40
61672;DHT22;47572;0.00000000;0.00000000;2022-10-14T08:42:19;21.40;65.40
61672;DHT22;47572;0.00000000;0.00000000;2022-10-14T08:44:52;21.50;65.40
61672;DHT22;47572;0.00000000;0.00000000;2022-10-14T08:47:21;21.50;65.30
61672;DHT22;47572;0.00000000;0.00000000;2022-10-14T08:52:29;21.50;65.20
61672;DHT22;47572;0.00000000;0.00000000;2022-10-14T08:54:57;21.50;65.20
61672;DHT22;47572;0.00000000;0.00000000;2022-10-14T08:57:25;21.50;65.20
61672;DHT22;47572;0.00000000;0.00000000;2022-10-14T08:59:51;21.60;65.30
61672;DHT22;47572;0.00000000;0.00000000;2022-10-14T09:04:46;21.60;65.20
61672;DHT22;47572;0.00000000;0.00000000;2022-10-14T09:07:14;21.70;65.20
61672;DHT22;47572;0.00000000;0.00000000;2022-10-14T09:09:41;21.70;65.20
61672;DHT22;47572;0.00000000;0.00000000;2022-10-14T09:12:11;21.70;65.10
61672;DHT22;47572;0.00000000;0.00000000;2022-10-14T09:14:41;21.70;65.10
61672;DHT22;47572;0.00000000;0.00000000;2022-10-14T09:17:12;21.70;65.10
61672;DHT22;47572;0.00000000;0.00000000;2022-10-14T09:19:44;21.70;65.10
61672;DHT22;47572;0.00000000;0.00000000;2022-10-14T09:22:12;21.80;65.20
61672;DHT22;47572;0.00000000;0.00000000;2022-10-14T09:24:38;21.80;65.10
61672;DHT22;47572;0.00000000;0.00000000;2022-10-14T09:27:06;21.80;65.10
61672;DHT22;47572;0.00000000;0.00000000;2022-10-14T09:29:40;21.80;65.10
61672;DHT22;47572;0.00000000;0.00000000;2022-10-14T09:32:29;21.80;65.00
61672;DHT22;47572;0.00000000;0.00000000;2022-10-14T09:34:56;21.90;64.90
61672;DHT22;47572;0.00000000;0.00000000;2022-10-14T09:39:52;21.90;64.80
61672;DHT22;47572;0.00000000;0.00000000;2022-10-14T09:42:19;21.90;64.80
61672;DHT22;47572;0.00000000;0.00000000;2022-10-14T09:45:00;21.90;64.80
61672;DHT22;47572;0.00000000;0.00000000;2022-10-14T09:47:27;21.90;64.80
61672;DHT22;47572;0.00000000;0.00000000;2022-10-14T09:49:53;21.90;64.90
61672;DHT22;47572;0.00000000;0.00000000;2022-10-14T09:52:21;21.90;64.90
61672;DHT22;47572;0.00000000;0.00000000;2022-10-14T09:54:57;22.00;65.00
61672;DHT22;47572;0.00000000;0.00000000;2022-10-14T09:57:23;22.00;64.90
61672;DHT22;47572;0.00000000;0.00000000;2022-10-14T09:59:50;22.00;64.80
61672;DHT22;47572;0.00000000;0.00000000;2022-10-14T10:02:22;22.00;64.80
61672;DHT22;47572;0.00000000;0.00000000;2022-10-14T10:04:49;22.10;64.90
61672;DHT22;47572;0.00000000;0.00000000;2022-10-14T10:07:23;22.10;64.80
61672;DHT22;47572;0.00000000;0.00000000;2022-10-14T10:09:54;22.10;64.80
61672;DHT22;47572;0.00000000;0.00000000;2022-10-14T10:12:25;22.10;64.80
61672;DHT22;47572;0.00000000;0.00000000;2022-10-14T10:14:56;22.10;65.70
61672;DHT22;47572;0.00000000;0.00000000;2022-10-14T10:17:23;22.10;64.80
61672;DHT22;47572;0.00000000;0.00000000;2022-10-14T10:19:48;22.10;64.80
61672;DHT22;47572;0.00000000;0.00000000;2022-10-14T10:24:50;22.20;64.80
61672;DHT22;47572;0.00000000;0.00000000;2022-10-14T10:27:22;22.20;64.80
61672;DHT22;47572;0.00000000;0.00000000;2022-10-14T10:29:48;22.20;64.80
61672;DHT22;47572;0.00000000;0.00000000;2022-10-14T10:32:20;22.20;64.80
61672;DHT22;47572;0.00000000;0.00000000;2022-10-14T10:34:50;22.20;64.90
61672;DHT22;47572;0.00000000;0.00000000;2022-10-14T10:37:21;22.10;65.00
61672;DHT22;47572;0.00000000;0.00000000;2022-10-14T10:40:18;22.10;65.10
61672;DHT22;47572;0.00000000;0.00000000;2022-10-14T10:42:41;22.00;65.20
61672;DHT22;47572;0.00000000;0.00000000;2022-10-14T10:52:58;21.80;65.90
61672;DHT22;47572;0.00000000;0.00000000;2022-10-14T10:58:02;21.60;66.30
61672;DHT22;47572;0.00000000;0.00000000;2022-10-14T11:00:31;21.60;66.50
61672;DHT22;47572;0.00000000;0.00000000;2022-10-14T11:05:49;21.40;66.80
61672;DHT22;47572;0.00000000;0.00000000;2022-10-14T11:13:55;21.30;67.30
61672;DHT22;47572;0.00000000;0.00000000;2022-10-14T11:16:35;21.20;67.40
61672;DHT22;47572;0.00000000;0.00000000;2022-10-14T11:19:06;21.10;67.50
61672;DHT22;47572;0.00000000;0.00000000;2022-10-14T11:26:36;21.10;67.90
61672;DHT22;47572;0.00000000;0.00000000;2022-10-14T11:31:36;21.00;68.20
61672;DHT22;47572;0.00000000;0.00000000;2022-10-14T11:46:38;20.80;68.50
61672;DHT22;47572;0.00000000;0.00000000;2022-10-14T11:52:05;20.70;68.60
61672;DHT22;47572;0.00000000;0.00000000;2022-10-14T11:57:04;20.70;68.70
61672;DHT22;47572;0.00000000;0.00000000;2022-10-14T12:13:24;20.60;69.00
61672;DHT22;47572;0.00000000;0.00000000;2022-10-14T12:15:52;20.50;69.00
61672;DHT22;47572;0.00000000;0.00000000;2022-10-14T12:18:18;20.50;68.90
61672;DHT22;47572;0.00000000;0.00000000;2022-10-14T12:23:31;20.50;69.00
61672;DHT22;47572;0.00000000;0.00000000;2022-10-14T12:26:12;20.50;69.10
61672;DHT22;47572;0.00000000;0.00000000;2022-10-14T12:28:40;20.50;69.40
61672;DHT22;47572;0.00000000;0.00000000;2022-10-14T12:31:40;20.50;69.40
61672;DHT22;47572;0.00000000;0.00000000;2022-10-14T12:34:42;20.40;69.60
61672;DHT22;47572;0.00000000;0.00000000;2022-10-14T12:36:48;20.50;69.60
61672;DHT22;47572;0.00000000;0.00000000;2022-10-14T12:44:17;20.40;69.80
61672;DHT22;47572;0.00000000;0.00000000;2022-10-14T12:46:43;20.40;69.80
61672;DHT22;47572;0.00000000;0.00000000;2022-10-14T12:49:29;20.40;69.80
61672;DHT22;47572;0.00000000;0.00000000;2022-10-14T12:51:56;20.40;69.80
61672;DHT22;47572;0.00000000;0.00000000;2022-10-14T12:54:23;20.30;69.80
61672;DHT22;47572;0.00000000;0.00000000;2022-10-14T12:57:31;20.30;69.80
61672;DHT22;47572;0.00000000;0.00000000;2022-10-14T12:59:37;20.40;69.90
61672;DHT22;47572;0.00000000;0.00000000;2022-10-14T13:02:11;20.30;69.90
61672;DHT22;47572;0.00000000;0.00000000;2022-10-14T13:04:51;20.40;70.10
61672;DHT22;47572;0.00000000;0.00000000;2022-10-14T13:09:55;20.30;70.10
61672;DHT22;47572;0.00000000;0.00000000;2022-10-14T13:20:00;20.30;70.30
61672;DHT22;47572;0.00000000;0.00000000;2022-10-14T13:25:16;20.30;70.20
61672;DHT22;47572;0.00000000;0.00000000;2022-10-14T13:38:13;20.20;70.20
61672;DHT22;47572;0.00000000;0.00000000;2022-10-14T13:40:43;20.20;70.20
61672;DHT22;47572;0.00000000;0.00000000;2022-10-14T13:43:28;20.20;70.30
61672;DHT22;47572;0.00000000;0.00000000;2022-10-14T13:46:01;20.20;70.30
61672;DHT22;47572;0.00000000;0.00000000;2022-10-14T13:48:32;20.20;70.40
61672;DHT22;47572;0.00000000;0.00000000;2022-10-14T13:51:06;20.20;70.40
61672;DHT22;47572;0.00000000;0.00000000;2022-10-14T13:53:37;20.20;70.50
61672;DHT22;47572;0.00000000;0.00000000;2022-10-14T13:56:16;20.20;70.50
61672;DHT22;47572;0.00000000;0.00000000;2022-10-14T13:58:45;20.20;70.50
61672;DHT22;47572;0.00000000;0.00000000;2022-10-14T14:01:16;20.20;70.50
61672;DHT22;47572;0.00000000;0.00000000;2022-10-14T14:03:43;20.20;70.70
61672;DHT22;47572;0.00000000;0.00000000;2022-10-14T14:06:10;20.20;70.70
61672;DHT22;47572;0.00000000;0.00000000;2022-10-14T14:08:39;20.20;70.70
61672;DHT22;47572;0.00000000;0.00000000;2022-10-14T14:11:10;20.20;70.70
61672;DHT22;47572;0.00000000;0.00000000;2022-10-14T14:13:47;20.20;70.70
61672;DHT22;47572;0.00000000;0.00000000;2022-10-14T14:16:18;20.20;70.70
61672;DHT22;47572;0.00000000;0.00000000;2022-10-14T14:18:48;20.10;70.80
61672;DHT22;47572;0.00000000;0.00000000;2022-10-14T14:21:14;20.10;70.70
61672;DHT22;47572;0.00000000;0.00000000;2022-10-14T14:23:49;20.10;70.60
61672;DHT22;47572;0.00000000;0.00000000;2022-10-14T14:26:15;20.10;70.60
61672;DHT22;47572;0.00000000;0.00000000;2022-10-14T14:28:41;20.20;70.80
61672;DHT22;47572;0.00000000;0.00000000;2022-10-14T14:31:10;20.10;70.80
61672;DHT22;47572;0.00000000;0.00000000;2022-10-14T14:33:39;20.20;70.80
61672;DHT22;47572;0.00000000;0.00000000;2022-10-14T14:36:05;20.20;70.80
61672;DHT22;47572;0.00000000;0.00000000;2022-10-14T14:38:35;20.20;70.80
61672;DHT22;47572;0.00000000;0.00000000;2022-10-14T14:41:02;20.20;70.60
61672;DHT22;47572;0.00000000;0.00000000;2022-10-14T14:43:29;20.20;70.30
61672;DHT22;47572;0.00000000;0.00000000;2022-10-14T14:45:55;20.20;70.20
61672;DHT22;47572;0.00000000;0.00000000;2022-10-14T14:48:22;20.30;70.00
61672;DHT22;47572;0.00000000;0.00000000;2022-10-14T14:50:48;20.40;70.00
61672;DHT22;47572;0.00000000;0.00000000;2022-10-14T14:53:17;20.40;69.90
61672;DHT22;47572;0.00000000;0.00000000;2022-10-14T14:55:46;20.40;69.80
61672;DHT22;47572;0.00000000;0.00000000;2022-10-14T14:58:19;20.40;69.80
61672;DHT22;47572;0.00000000;0.00000000;2022-10-14T15:00:46;20.50;69.70
61672;DHT22;47572;0.00000000;0.00000000;2022-10-14T15:03:12;20.50;69.60
61672;DHT22;47572;0.00000000;0.00000000;2022-10-14T15:05:38;20.50;69.50
61672;DHT22;47572;0.00000000;0.00000000;2022-10-14T15:08:03;20.60;69.50
61672;DHT22;47572;0.00000000;0.00000000;2022-10-14T15:10:29;20.60;69.40
61672;DHT22;47572;0.00000000;0.00000000;2022-10-14T15:12:58;20.60;69.50
61672;DHT22;47572;0.00000000;0.00000000;2022-10-14T15:15:28;20.60;69.40
61672;DHT22;47572;0.00000000;0.00000000;2022-10-14T15:20:29;20.70;69.50
61672;DHT22;47572;0.00000000;0.00000000;2022-10-14T15:22:55;20.70;69.40
61672;DHT22;47572;0.00000000;0.00000000;2022-10-14T15:27:51;20.70;69.40
61672;DHT22;47572;0.00000000;0.00000000;2022-10-14T15:30:34;20.80;69.40
61672;DHT22;47572;0.00000000;0.00000000;2022-10-14T15:33:16;20.80;69.30
61672;DHT22;47572;0.00000000;0.00000000;2022-10-14T15:35:42;20.90;69.20
61672;DHT22;47572;0.00000000;0.00000000;2022-10-14T15:38:12;20.90;69.10
61672;DHT22;47572;0.00000000;0.00000000;2022-10-14T15:40:38;21.00;69.00
61672;DHT22;47572;0.00000000;0.00000000;2022-10-14T15:43:10;21.00;69.00
61672;DHT22;47572;0.00000000;0.00000000;2022-10-14T15:45:36;21.10;68.80
61672;DHT22;47572;0.00000000;0.00000000;2022-10-14T15:48:01;21.20;68.70
61672;DHT22;47572;0.00000000;0.00000000;2022-10-14T15:50:30;21.20;68.60